createdAt,value
2018-09-11T00:00:20.400Z,17.95
2018-09-11T00:02:49.166Z,17.84
2018-09-11T00:05:19.723Z,17.80
2018-09-11T00:07:48.513Z,17.88
2018-09-11T00:10:17.382Z,17.96
2018-09-11T00:12:46.778Z,18.00
2018-09-11T00:15:15.698Z,18.01
2018-09-11T00:17:44.577Z,17.96
2018-09-11T00:20:13.368Z,17.94
2018-09-11T00:22:42.232Z,17.93
2018-09-11T00:25:11.118Z,17.92
2018-09-11T00:27:39.992Z,17.86
2018-09-11T00:30:08.836Z,17.83
2018-09-11T00:32:37.931Z,17.67
2018-09-11T00:35:06.734Z,17.51
2018-09-11T00:37:35.552Z,17.45
2018-09-11T00:40:04.498Z,17.37
2018-09-11T00:42:33.368Z,17.31
2018-09-11T00:45:02.252Z,17.22
2018-09-11T00:47:31.016Z,17.19
2018-09-11T00:49:59.874Z,17.23
2018-09-11T00:52:28.647Z,17.23
2018-09-11T00:54:57.561Z,17.19
2018-09-11T00:57:26.534Z,17.12
2018-09-11T00:59:55.285Z,17.10
2018-09-11T01:02:24.174Z,17.13
2018-09-11T01:04:53.019Z,17.05
2018-09-11T01:07:21.950Z,17.12
2018-09-11T01:09:50.705Z,17.12
2018-09-11T01:12:19.496Z,17.02
2018-09-11T01:14:48.279Z,16.99
2018-09-11T01:17:17.046Z,17.00
2018-09-11T01:19:45.917Z,17.06
2018-09-11T01:22:14.731Z,17.04
2018-09-11T01:24:43.593Z,17.16
2018-09-11T01:27:12.366Z,17.22
2018-09-11T01:29:41.178Z,17.19
2018-09-11T01:32:10.039Z,17.11
2018-09-11T01:34:38.810Z,17.09
2018-09-11T01:37:08.141Z,17.10
2018-09-11T01:39:36.946Z,17.13
2018-09-11T01:42:05.828Z,17.17
2018-09-11T01:44:34.615Z,17.19
2018-09-11T01:47:03.459Z,17.21
2018-09-11T01:49:32.463Z,17.22
2018-09-11T01:52:01.251Z,17.20
2018-09-11T01:54:30.087Z,17.18
2018-09-11T01:56:58.849Z,17.16
2018-09-11T01:59:27.657Z,17.12
2018-09-11T02:01:56.415Z,17.10
2018-09-11T02:04:25.205Z,17.06
2018-09-11T02:06:54.005Z,17.02
2018-09-11T02:09:22.752Z,16.98
2018-09-11T02:11:51.515Z,16.92
2018-09-11T02:14:20.335Z,16.87
2018-09-11T02:16:49.173Z,16.83
2018-09-11T02:19:17.974Z,16.84
2018-09-11T02:21:46.807Z,16.81
2018-09-11T02:24:15.589Z,16.82
2018-09-11T02:26:44.401Z,16.82
2018-09-11T02:29:13.569Z,16.84
2018-09-11T02:31:42.363Z,16.82
2018-09-11T02:34:11.158Z,16.72
2018-09-11T02:36:39.941Z,16.58
2018-09-11T02:39:10.643Z,16.49
2018-09-11T02:41:39.460Z,16.47
2018-09-11T02:44:09.279Z,16.39
2018-09-11T02:46:38.085Z,16.34
2018-09-11T02:49:07.295Z,16.41
2018-09-11T02:51:36.131Z,16.37
2018-09-11T02:54:05.010Z,16.36
2018-09-11T02:56:33.807Z,16.31
2018-09-11T02:59:02.587Z,16.30
2018-09-11T03:01:31.404Z,16.32
2018-09-11T03:04:00.209Z,16.32
2018-09-11T03:06:29.048Z,16.39
2018-09-11T03:08:57.882Z,16.43
2018-09-11T03:11:26.791Z,16.42
2018-09-11T03:13:55.645Z,16.42
2018-09-11T03:16:24.411Z,16.44
2018-09-11T03:18:53.266Z,16.43
2018-09-11T03:21:22.204Z,16.36
2018-09-11T03:23:51.019Z,16.28
2018-09-11T03:26:19.811Z,16.30
2018-09-11T03:28:48.680Z,16.23
2018-09-11T03:31:17.879Z,16.22
2018-09-11T03:33:46.821Z,16.21
2018-09-11T03:36:15.676Z,16.27
2018-09-11T03:38:44.643Z,16.27
2018-09-11T03:41:13.446Z,16.23
2018-09-11T03:43:42.296Z,16.25
2018-09-11T03:46:12.071Z,16.32
2018-09-11T03:48:40.921Z,16.26
2018-09-11T03:51:09.718Z,16.20
2018-09-11T03:53:38.556Z,16.19
2018-09-11T03:56:07.407Z,16.17
2018-09-11T03:58:36.244Z,16.20
2018-09-11T04:01:05.452Z,16.17
2018-09-11T04:03:34.282Z,16.22
2018-09-11T04:06:03.041Z,16.29
2018-09-11T04:08:31.856Z,16.27
2018-09-11T04:11:00.641Z,16.21
2018-09-11T04:13:29.480Z,16.29
2018-09-11T04:15:58.289Z,16.41
2018-09-11T04:18:27.192Z,16.55
2018-09-11T04:20:56.005Z,16.71
2018-09-11T04:23:24.758Z,16.93
2018-09-11T04:25:53.575Z,17.07
2018-09-11T04:28:22.401Z,17.17
2018-09-11T04:30:51.287Z,17.21
2018-09-11T04:33:20.084Z,17.27
2018-09-11T04:35:48.834Z,17.25
2018-09-11T04:38:17.650Z,17.36
2018-09-11T04:40:46.451Z,17.45
2018-09-11T04:43:15.268Z,17.59
2018-09-11T04:45:44.204Z,17.74
2018-09-11T04:48:13.210Z,17.78
2018-09-11T04:50:42.023Z,17.80
2018-09-11T04:53:10.877Z,17.86
2018-09-11T04:55:40.029Z,17.93
2018-09-11T04:58:09.303Z,18.06
2018-09-11T05:00:38.324Z,18.12
2018-09-11T05:03:07.135Z,18.13
2018-09-11T05:05:35.975Z,18.22
2018-09-11T05:08:04.802Z,18.33
2018-09-11T05:10:33.591Z,18.22
2018-09-11T05:13:02.456Z,18.21
2018-09-11T05:15:31.372Z,18.19
2018-09-11T05:18:00.306Z,18.16
2018-09-11T05:20:29.558Z,18.18
2018-09-11T05:22:58.330Z,18.23
2018-09-11T05:25:27.179Z,18.31
2018-09-11T05:27:56.098Z,18.40
2018-09-11T05:30:24.942Z,18.40
2018-09-11T05:32:53.856Z,18.38
2018-09-11T05:35:22.747Z,18.44
2018-09-11T05:37:51.639Z,18.55
2018-09-11T05:40:20.500Z,18.63
2018-09-11T05:42:49.384Z,18.66
2018-09-11T05:45:18.176Z,18.77
2018-09-11T05:47:46.967Z,18.87
2018-09-11T05:50:15.845Z,18.93
2018-09-11T05:52:44.651Z,18.96
2018-09-11T05:55:13.437Z,19.02
2018-09-11T05:57:42.371Z,19.10
2018-09-11T06:00:11.299Z,19.10
2018-09-11T06:02:40.238Z,19.15
2018-09-11T06:05:09.234Z,19.22
2018-09-11T06:07:38.079Z,19.23
2018-09-11T06:10:06.986Z,19.18
2018-09-11T06:12:35.809Z,19.24
2018-09-11T06:15:05.030Z,19.31
2018-09-11T06:17:33.916Z,19.28
2018-09-11T06:20:02.754Z,19.36
2018-09-11T06:22:31.625Z,19.34
2018-09-11T06:25:00.486Z,19.36
2018-09-11T06:27:29.253Z,19.38
2018-09-11T06:29:58.202Z,19.44
2018-09-11T06:32:26.986Z,19.52
2018-09-11T06:34:55.797Z,19.50
2018-09-11T06:37:24.638Z,19.48
2018-09-11T06:39:53.564Z,19.48
2018-09-11T06:42:22.344Z,19.53
2018-09-11T06:44:51.201Z,19.54
2018-09-11T06:47:20.195Z,19.63
2018-09-11T06:49:49.310Z,19.65
2018-09-11T06:52:18.099Z,19.68
2018-09-11T06:54:46.958Z,19.64
2018-09-11T06:57:15.960Z,19.65
2018-09-11T06:59:44.742Z,19.65
2018-09-11T07:02:13.581Z,19.71
2018-09-11T07:04:42.428Z,19.75
2018-09-11T07:07:11.190Z,19.77
2018-09-11T07:09:40.006Z,19.81
2018-09-11T07:12:08.741Z,19.85
2018-09-11T07:14:37.565Z,19.95
2018-09-11T07:17:06.591Z,20.10
2018-09-11T07:19:35.574Z,20.17
2018-09-11T07:22:04.607Z,20.18
2018-09-11T07:24:33.626Z,20.25
2018-09-11T07:27:02.449Z,20.30
2018-09-11T07:29:31.271Z,20.38
2018-09-11T07:32:00.137Z,20.36
2018-09-11T07:34:29.039Z,20.40
2018-09-11T07:36:57.863Z,20.38
2018-09-11T07:39:26.622Z,20.38
2018-09-11T07:41:55.561Z,20.54
2018-09-11T07:44:24.446Z,20.62
2018-09-11T07:46:53.661Z,20.64
2018-09-11T07:49:22.547Z,20.72
2018-09-11T07:51:51.389Z,20.72
2018-09-11T07:54:20.270Z,20.74
2018-09-11T07:56:49.128Z,20.71
2018-09-11T07:59:17.968Z,20.76
2018-09-11T08:01:46.764Z,20.77
2018-09-11T08:04:15.685Z,20.78
2018-09-11T08:06:44.517Z,20.80
2018-09-11T08:09:14.039Z,20.76
2018-09-11T08:11:42.797Z,20.71
2018-09-11T08:14:11.585Z,20.73
2018-09-11T08:16:40.286Z,20.84
2018-09-11T08:19:09.399Z,20.93
2018-09-11T08:21:38.214Z,20.95
2018-09-11T08:24:07.488Z,21.03
2018-09-11T08:26:36.375Z,21.12
2018-09-11T08:29:05.321Z,21.19
2018-09-11T08:31:34.165Z,21.26
2018-09-11T08:34:02.998Z,21.18
2018-09-11T08:36:31.735Z,21.18
2018-09-11T08:39:00.605Z,21.33
2018-09-11T08:41:29.419Z,21.47
2018-09-11T08:43:58.184Z,21.49
2018-09-11T08:46:26.980Z,21.50
2018-09-11T08:48:55.841Z,21.65
2018-09-11T08:51:24.760Z,21.78
2018-09-11T08:53:53.501Z,21.99
2018-09-11T08:56:22.348Z,22.06
2018-09-11T08:58:51.225Z,22.18
2018-09-11T09:01:20.028Z,22.24
2018-09-11T09:03:48.748Z,22.25
2018-09-11T09:06:17.475Z,22.32
2018-09-11T09:08:46.259Z,22.52
2018-09-11T09:11:15.082Z,22.52
2018-09-11T09:13:43.887Z,22.43
2018-09-11T09:16:12.631Z,22.47
2018-09-11T09:18:41.389Z,22.37
2018-09-11T09:21:10.337Z,22.42
2018-09-11T09:23:39.053Z,22.45
2018-09-11T09:26:07.810Z,22.52
2018-09-11T09:28:36.587Z,22.63
2018-09-11T09:31:05.755Z,22.59
2018-09-11T09:33:34.644Z,22.63
2018-09-11T09:36:03.402Z,22.88
2018-09-11T09:38:32.134Z,22.96
2018-09-11T09:41:00.939Z,22.93
2018-09-11T09:43:29.731Z,22.98
2018-09-11T09:45:58.538Z,22.90
2018-09-11T09:48:27.274Z,22.95
2018-09-11T09:50:56.278Z,22.93
2018-09-11T09:53:25.118Z,22.82
2018-09-11T09:55:53.917Z,22.91
2018-09-11T09:58:22.706Z,23.08
2018-09-11T10:01:01.639Z,23.15
2018-09-11T10:03:30.883Z,23.22
2018-09-11T10:05:59.623Z,23.13
2018-09-11T10:08:28.393Z,23.05
2018-09-11T10:10:57.180Z,22.87
2018-09-11T10:13:25.947Z,22.61
2018-09-11T10:15:54.842Z,22.63
2018-09-11T10:18:23.659Z,22.79
2018-09-11T10:20:52.407Z,22.73
2018-09-11T10:23:21.226Z,22.75
2018-09-11T10:25:49.999Z,22.70
2018-09-11T10:28:18.813Z,22.67
2018-09-11T10:30:47.790Z,22.64
2018-09-11T10:33:16.511Z,22.86
2018-09-11T10:35:45.261Z,22.90
2018-09-11T10:38:14.028Z,22.86
2018-09-11T10:40:42.810Z,22.66
2018-09-11T10:43:11.612Z,22.73
2018-09-11T10:45:40.359Z,22.79
2018-09-11T10:48:09.774Z,22.95
2018-09-11T10:50:38.531Z,23.06
2018-09-11T10:53:07.450Z,23.08
2018-09-11T10:55:36.283Z,23.20
2018-09-11T10:58:05.277Z,23.14
2018-09-11T11:00:34.188Z,22.97
2018-09-11T11:03:03.573Z,22.77
2018-09-11T11:05:32.644Z,22.78
2018-09-11T11:08:01.714Z,22.83
2018-09-11T11:10:30.892Z,23.02
2018-09-11T11:12:59.672Z,23.01
2018-09-11T11:15:28.457Z,23.11
2018-09-11T11:17:57.159Z,23.16
2018-09-11T11:20:25.926Z,23.14
2018-09-11T11:22:54.752Z,23.23
2018-09-11T11:25:23.565Z,23.29
2018-09-11T11:27:52.372Z,23.46
2018-09-11T11:30:21.202Z,23.40
2018-09-11T11:32:49.984Z,23.29
2018-09-11T11:35:18.711Z,23.35
2018-09-11T11:37:47.460Z,23.39
2018-09-11T11:40:16.229Z,23.40
2018-09-11T11:42:45.043Z,23.45
2018-09-11T11:45:14.144Z,23.34
2018-09-11T11:47:43.093Z,23.21
2018-09-11T11:50:11.900Z,23.24
2018-09-11T11:52:40.756Z,23.18
2018-09-11T11:55:09.627Z,23.36
2018-09-11T11:57:38.742Z,23.50
2018-09-11T12:00:07.732Z,23.47
2018-09-11T12:02:36.505Z,23.51
2018-09-11T12:05:05.448Z,23.50
2018-09-11T12:07:34.264Z,23.60
2018-09-11T12:10:03.063Z,23.70
2018-09-11T12:12:31.884Z,23.76
2018-09-11T12:15:00.812Z,23.88
2018-09-11T12:17:29.570Z,23.92
2018-09-11T12:19:58.380Z,24.00
2018-09-11T12:22:27.349Z,24.02
2018-09-11T12:24:56.162Z,24.11
2018-09-11T12:27:25.104Z,24.17
2018-09-11T12:29:54.053Z,24.24
2018-09-11T12:32:22.839Z,24.02
2018-09-11T12:34:51.598Z,23.84
2018-09-11T12:37:20.382Z,23.76
2018-09-11T12:39:49.129Z,23.73
2018-09-11T12:42:17.890Z,23.79
2018-09-11T12:44:46.722Z,24.02
2018-09-11T12:47:15.649Z,24.45
2018-09-11T12:49:44.500Z,24.76
2018-09-11T12:52:13.271Z,25.00
2018-09-11T12:54:42.281Z,25.11
2018-09-11T12:57:11.036Z,25.16
2018-09-11T12:59:39.928Z,25.12
2018-09-11T13:02:08.738Z,24.96
2018-09-11T13:04:37.691Z,24.70
2018-09-11T13:07:06.410Z,24.50
2018-09-11T13:09:35.358Z,24.54
2018-09-11T13:12:04.289Z,24.62
2018-09-11T13:14:33.203Z,24.56
2018-09-11T13:17:02.097Z,24.43
2018-09-11T13:19:30.868Z,24.34
2018-09-11T13:21:59.775Z,24.19
2018-09-11T13:24:28.593Z,24.18
2018-09-11T13:26:57.496Z,24.03
2018-09-11T13:29:26.284Z,24.07
2018-09-11T13:31:55.046Z,24.14
2018-09-11T13:34:23.798Z,23.99
2018-09-11T13:36:52.588Z,23.84
2018-09-11T13:39:21.359Z,23.77
2018-09-11T13:41:50.152Z,23.75
2018-09-11T13:44:18.963Z,23.77
2018-09-11T13:46:47.781Z,23.80
2018-09-11T13:49:16.596Z,23.92
2018-09-11T13:51:45.628Z,23.89
2018-09-11T13:54:14.341Z,23.80
2018-09-11T13:56:43.121Z,23.76
2018-09-11T13:59:11.911Z,23.72
2018-09-11T14:01:40.778Z,23.71
2018-09-11T14:04:09.640Z,23.71
2018-09-11T14:06:38.465Z,23.69
2018-09-11T14:09:10.158Z,23.70
2018-09-11T14:11:38.946Z,23.69
2018-09-11T14:14:07.707Z,23.74
2018-09-11T14:16:36.550Z,23.77
2018-09-11T14:19:05.397Z,23.81
2018-09-11T14:21:40.710Z,23.88
2018-09-11T14:24:09.470Z,23.86
2018-09-11T14:26:38.298Z,23.84
2018-09-11T14:29:07.246Z,23.80
2018-09-11T14:31:36.070Z,23.70
2018-09-11T14:34:04.869Z,23.59
2018-09-11T14:36:33.637Z,23.55
2018-09-11T14:39:02.755Z,23.40
2018-09-11T14:41:31.482Z,23.39
2018-09-11T14:44:00.266Z,23.34
2018-09-11T14:46:29.053Z,23.27
2018-09-11T14:48:57.806Z,23.20
2018-09-11T14:51:26.549Z,23.19
2018-09-11T14:53:55.343Z,23.19
2018-09-11T14:56:24.121Z,23.11
2018-09-11T14:58:52.888Z,23.05
2018-09-11T15:01:21.658Z,22.96
2018-09-11T15:03:50.502Z,22.89
2018-09-11T15:06:19.312Z,22.83
2018-09-11T15:08:48.098Z,22.76
2018-09-11T15:11:16.910Z,22.70
2018-09-11T15:13:45.751Z,22.65
2018-09-11T15:16:14.523Z,22.61
2018-09-11T15:18:43.317Z,22.58
2018-09-11T15:21:12.062Z,22.52
2018-09-11T15:23:40.911Z,22.51
2018-09-11T15:26:09.702Z,22.49
2018-09-11T15:28:38.490Z,22.50
2018-09-11T15:31:07.324Z,22.56
2018-09-11T15:33:36.077Z,22.61
2018-09-11T15:36:04.982Z,22.59
2018-09-11T15:38:33.850Z,22.54
2018-09-11T15:41:02.598Z,22.49
2018-09-11T15:43:31.429Z,22.43
2018-09-11T15:46:00.217Z,22.37
2018-09-11T15:48:29.016Z,22.30
2018-09-11T15:50:57.862Z,22.24
2018-09-11T15:53:26.602Z,22.19
2018-09-11T15:55:55.569Z,22.13
2018-09-11T15:58:24.393Z,22.11
2018-09-11T16:00:53.424Z,22.06
2018-09-11T16:03:22.411Z,22.03
2018-09-11T16:05:51.194Z,22.01
2018-09-11T16:08:20.007Z,21.98
2018-09-11T16:10:48.999Z,21.99
2018-09-11T16:13:17.829Z,21.90
2018-09-11T16:15:46.614Z,21.84
2018-09-11T16:18:15.427Z,21.80
2018-09-11T16:20:44.220Z,21.74
2018-09-11T16:23:13.130Z,21.64
2018-09-11T16:25:41.948Z,21.64
2018-09-11T16:28:10.785Z,21.67
2018-09-11T16:30:39.582Z,21.71
2018-09-11T16:33:08.334Z,21.67
2018-09-11T16:35:37.148Z,21.62
2018-09-11T16:38:06.025Z,21.53
2018-09-11T16:40:34.823Z,21.47
2018-09-11T16:43:03.798Z,21.41
2018-09-11T16:45:32.598Z,21.23
2018-09-11T16:48:01.346Z,21.18
2018-09-11T16:50:30.119Z,21.16
2018-09-11T16:52:58.944Z,21.13
2018-09-11T16:55:27.731Z,21.10
2018-09-11T16:57:56.578Z,21.11
2018-09-11T17:00:25.339Z,21.22
2018-09-11T17:02:54.110Z,21.20
2018-09-11T17:05:22.906Z,21.21
2018-09-11T17:07:51.655Z,21.14
2018-09-11T17:10:20.489Z,21.08
2018-09-11T17:12:49.282Z,21.06
2018-09-11T17:15:18.077Z,21.03
2018-09-11T17:17:46.906Z,21.00
2018-09-11T17:20:15.872Z,21.00
2018-09-11T17:22:44.969Z,21.00
2018-09-11T17:25:13.816Z,20.95
2018-09-11T17:27:42.623Z,20.93
2018-09-11T17:30:11.981Z,20.87
2018-09-11T17:32:40.837Z,20.79
2018-09-11T17:35:09.638Z,20.76
2018-09-11T17:37:38.392Z,20.70
2018-09-11T17:40:07.198Z,20.70
2018-09-11T17:42:36.039Z,20.58
2018-09-11T17:45:05.046Z,20.53
2018-09-11T17:47:33.827Z,20.46
2018-09-11T17:50:02.615Z,20.36
2018-09-11T17:52:31.406Z,20.37
2018-09-11T17:55:00.167Z,20.33
2018-09-11T17:57:29.075Z,20.20
2018-09-11T17:59:57.868Z,20.10
2018-09-11T18:02:26.693Z,20.07
2018-09-11T18:04:55.465Z,20.07
2018-09-11T18:07:24.267Z,20.02
2018-09-11T18:09:53.018Z,20.07
2018-09-11T18:12:21.799Z,20.04
2018-09-11T18:14:50.609Z,20.03
2018-09-11T18:17:19.380Z,19.98
2018-09-11T18:19:48.175Z,19.91
2018-09-11T18:22:16.966Z,19.83
2018-09-11T18:24:45.835Z,19.80
2018-09-11T18:27:14.883Z,19.72
2018-09-11T18:29:43.667Z,19.71
2018-09-11T18:32:12.669Z,19.79
2018-09-11T18:34:41.459Z,19.71
2018-09-11T18:37:10.355Z,19.70
2018-09-11T18:39:39.294Z,19.70
2018-09-11T18:42:08.083Z,19.65
2018-09-11T18:44:36.931Z,19.75
2018-09-11T18:47:06.100Z,19.73
2018-09-11T18:49:34.834Z,19.65
2018-09-11T18:52:03.697Z,19.73
2018-09-11T18:54:32.512Z,19.69
2018-09-11T18:57:01.413Z,19.67
2018-09-11T18:59:30.201Z,19.66
2018-09-11T19:01:59.353Z,19.64
2018-09-11T19:04:28.173Z,19.72
2018-09-11T19:06:56.912Z,19.66
2018-09-11T19:09:25.711Z,19.65
2018-09-11T19:11:54.632Z,19.59
2018-09-11T19:14:23.436Z,19.61
2018-09-11T19:16:52.208Z,19.58
2018-09-11T19:19:21.062Z,19.61
2018-09-11T19:21:49.970Z,19.62
2018-09-11T19:24:18.741Z,19.66
2018-09-11T19:26:47.587Z,19.62
2018-09-11T19:29:16.532Z,19.56
2018-09-11T19:31:45.298Z,19.52
2018-09-11T19:34:14.218Z,19.48
2018-09-11T19:36:43.375Z,19.49
2018-09-11T19:39:12.198Z,19.43
2018-09-11T19:41:40.959Z,19.41
2018-09-11T19:44:09.736Z,19.48
2018-09-11T19:46:38.918Z,19.42
2018-09-11T19:49:07.687Z,19.38
2018-09-11T19:51:36.448Z,19.30
2018-09-11T19:54:05.317Z,19.19
2018-09-11T19:56:34.708Z,19.12
2018-09-11T19:59:03.492Z,19.05
2018-09-11T20:01:32.287Z,19.03
2018-09-11T20:04:01.196Z,18.99
2018-09-11T20:06:30.028Z,19.00
2018-09-11T20:08:58.753Z,19.08
2018-09-11T20:11:27.514Z,19.03
2018-09-11T20:13:56.309Z,18.96
2018-09-11T20:16:25.068Z,18.90
2018-09-11T20:18:53.897Z,18.84
2018-09-11T20:21:22.694Z,18.88
2018-09-11T20:23:51.489Z,18.92
2018-09-11T20:26:20.381Z,18.87
2018-09-11T20:28:49.155Z,18.91
2018-09-11T20:31:18.117Z,18.88
2018-09-11T20:33:47.010Z,18.81
2018-09-11T20:36:16.029Z,18.71
2018-09-11T20:38:44.934Z,18.76
2018-09-11T20:41:13.685Z,18.73
2018-09-11T20:43:42.503Z,18.71
2018-09-11T20:46:11.263Z,18.78
2018-09-11T20:48:39.987Z,18.83
2018-09-11T20:51:08.827Z,18.87
2018-09-11T20:53:37.591Z,18.84
2018-09-11T20:56:06.439Z,18.85
2018-09-11T20:58:35.353Z,18.86
2018-09-11T21:01:04.157Z,18.87
2018-09-11T21:03:32.913Z,18.87
2018-09-11T21:06:01.730Z,18.88
2018-09-11T21:08:30.490Z,18.87
2018-09-11T21:10:59.325Z,18.89
2018-09-11T21:13:28.367Z,18.91
2018-09-11T21:15:57.143Z,18.85
2018-09-11T21:18:25.999Z,18.73
2018-09-11T21:20:54.788Z,18.68
2018-09-11T21:23:23.544Z,18.70
2018-09-11T21:25:52.334Z,18.68
2018-09-11T21:28:21.142Z,18.63
2018-09-11T21:30:50.107Z,18.53
2018-09-11T21:33:18.856Z,18.52
2018-09-11T21:35:47.568Z,18.50
2018-09-11T21:38:16.343Z,18.46
2018-09-11T21:40:45.094Z,18.55
2018-09-11T21:43:13.895Z,18.60
2018-09-11T21:45:42.730Z,18.49
2018-09-11T21:48:11.493Z,18.44
2018-09-11T21:50:40.337Z,18.49
2018-09-11T21:53:09.106Z,18.45
2018-09-11T21:55:37.903Z,18.39
2018-09-11T21:58:06.671Z,18.27
2018-09-11T22:00:38.457Z,18.21
2018-09-11T22:03:07.223Z,18.26
2018-09-11T22:05:36.055Z,18.32
2018-09-11T22:08:04.933Z,18.37
2018-09-11T22:10:33.663Z,18.49
2018-09-11T22:13:02.451Z,18.47
2018-09-11T22:15:31.187Z,18.32
2018-09-11T22:18:00.069Z,18.35
2018-09-11T22:20:28.852Z,18.31
2018-09-11T22:22:57.562Z,18.32
2018-09-11T22:25:26.356Z,18.30
2018-09-11T22:27:55.121Z,18.31
2018-09-11T22:30:23.914Z,18.31
2018-09-11T22:32:52.688Z,18.29
2018-09-11T22:35:21.462Z,18.21
2018-09-11T22:37:50.203Z,18.14
2018-09-11T22:40:19.221Z,18.06
2018-09-11T22:42:47.952Z,18.01
2018-09-11T22:45:16.736Z,17.97
2018-09-11T22:47:45.545Z,17.96
2018-09-11T22:50:14.334Z,17.92
2018-09-11T22:52:43.055Z,17.91
2018-09-11T22:55:11.817Z,17.85
2018-09-11T22:57:40.592Z,17.72
2018-09-11T23:00:09.485Z,17.71
2018-09-11T23:02:38.324Z,17.61
2018-09-11T23:05:07.170Z,17.58
2018-09-11T23:07:35.908Z,17.52
2018-09-11T23:10:04.852Z,17.52
2018-09-11T23:12:33.622Z,17.53
2018-09-11T23:15:02.425Z,17.53
2018-09-11T23:17:31.179Z,17.53
2018-09-11T23:20:00.027Z,17.48
2018-09-11T23:22:28.810Z,17.48
2018-09-11T23:24:57.684Z,17.42
2018-09-11T23:27:26.691Z,17.44
2018-09-11T23:29:55.473Z,17.42
2018-09-11T23:32:24.504Z,17.38
2018-09-11T23:34:53.277Z,17.32
2018-09-11T23:37:22.028Z,17.26
2018-09-11T23:39:50.812Z,17.24
2018-09-11T23:42:19.723Z,17.24
2018-09-11T23:44:48.456Z,17.21
2018-09-11T23:47:17.209Z,17.15
2018-09-11T23:49:45.989Z,17.12
2018-09-11T23:52:14.736Z,17.05
2018-09-11T23:54:43.507Z,17.03
2018-09-11T23:57:12.352Z,17.01
2018-09-11T23:59:41.154Z,17.01
